createdAt,value
2022-10-15T00:04:46.445Z,7.04
2022-10-15T00:09:52.700Z,7.08
2022-10-15T00:15:00.285Z,6.67
2022-10-15T00:20:09.895Z,6.73
2022-10-15T00:25:16.151Z,6.96
2022-10-15T00:30:23.525Z,7.01
2022-10-15T00:35:33.961Z,6.96
2022-10-15T00:40:43.683Z,6.74
2022-10-15T00:45:52.552Z,6.59
2022-10-15T00:51:02.740Z,6.84
2022-10-15T00:56:11.157Z,6.48
2022-10-15T01:01:18.884Z,6.78
2022-10-15T01:06:25.775Z,6.86
2022-10-15T01:11:43.000Z,6.84
2022-10-15T01:17:01.478Z,6.51
2022-10-15T01:22:12.511Z,6.54
2022-10-15T01:27:37.260Z,6.79
2022-10-15T01:32:58.800Z,6.51
2022-10-15T01:38:22.430Z,6.48
2022-10-15T01:43:37.379Z,6.41
2022-10-15T01:49:06.719Z,6.46
2022-10-15T01:54:19.592Z,6.39
2022-10-15T01:59:31.522Z,6.35
2022-10-15T02:04:40.141Z,6.53
2022-10-15T02:09:51.949Z,6.65
2022-10-15T02:15:04.850Z,6.41
2022-10-15T02:20:19.885Z,6.58
2022-10-15T02:25:29.846Z,6.32
2022-10-15T02:30:42.231Z,6.58
2022-10-15T02:35:53.973Z,6.15
2022-10-15T02:41:00.536Z,6.30
2022-10-15T02:46:09.185Z,6.33
2022-10-15T02:51:17.776Z,6.50
2022-10-15T02:56:24.173Z,6.63
2022-10-15T03:01:31.010Z,6.24
2022-10-15T03:06:39.777Z,6.39
2022-10-15T03:11:46.049Z,6.36
2022-10-15T03:16:52.312Z,6.34
2022-10-15T03:22:00.575Z,6.36
2022-10-15T03:27:15.426Z,6.50
2022-10-15T03:32:21.979Z,6.61
2022-10-15T03:37:29.715Z,6.67
2022-10-15T03:42:36.520Z,6.76
2022-10-15T03:47:43.894Z,6.83
2022-10-15T03:52:51.610Z,6.90
2022-10-15T03:57:59.002Z,6.97
2022-10-15T04:03:06.109Z,7.03
2022-10-15T04:08:14.243Z,7.07
2022-10-15T04:13:20.499Z,7.11
2022-10-15T04:18:26.783Z,7.20
2022-10-15T04:23:36.990Z,7.23
2022-10-15T04:29:01.553Z,7.30
2022-10-15T04:34:09.155Z,7.32
2022-10-15T04:39:17.880Z,7.29
2022-10-15T04:44:27.778Z,7.28
2022-10-15T04:49:36.649Z,7.30
2022-10-15T04:54:51.112Z,7.35
2022-10-15T04:59:58.027Z,7.33
2022-10-15T05:05:13.480Z,7.35
2022-10-15T05:10:31.102Z,7.40
2022-10-15T05:15:43.562Z,7.38
2022-10-15T05:20:50.407Z,7.34
2022-10-15T05:26:03.846Z,7.39
2022-10-15T05:31:18.623Z,7.42
2022-10-15T05:36:27.625Z,7.50
2022-10-15T05:41:36.159Z,7.60
2022-10-15T05:46:44.686Z,7.68
2022-10-15T05:51:56.781Z,7.79
2022-10-15T05:57:23.146Z,7.86
2022-10-15T06:02:29.663Z,7.87
2022-10-15T06:07:36.235Z,7.86
2022-10-15T06:12:50.294Z,7.80
2022-10-15T06:17:56.461Z,7.78
2022-10-15T06:23:03.763Z,7.82
2022-10-15T06:28:11.916Z,7.82
2022-10-15T06:33:22.129Z,7.79
2022-10-15T06:38:28.498Z,7.83
2022-10-15T06:43:37.033Z,7.91
2022-10-15T06:48:43.620Z,8.02
2022-10-15T06:53:51.047Z,8.10
2022-10-15T06:58:58.764Z,8.29
2022-10-15T07:04:05.073Z,8.37
2022-10-15T07:09:11.505Z,8.43
2022-10-15T07:14:19.206Z,8.50
2022-10-15T07:19:25.380Z,8.69
2022-10-15T07:24:32.010Z,8.83
2022-10-15T07:29:39.989Z,9.04
2022-10-15T07:34:46.596Z,9.17
2022-10-15T07:39:56.196Z,9.25
2022-10-15T07:45:08.172Z,9.35
2022-10-15T07:50:14.431Z,9.49
2022-10-15T07:55:20.725Z,9.61
2022-10-15T08:00:28.617Z,9.79
2022-10-15T08:05:36.793Z,9.92
2022-10-15T08:10:43.295Z,10.07
2022-10-15T08:15:52.457Z,10.20
2022-10-15T08:21:02.214Z,10.33
2022-10-15T08:26:08.725Z,10.52
2022-10-15T08:31:16.327Z,10.63
2022-10-15T08:36:22.813Z,10.71
2022-10-15T08:41:39.276Z,10.81
2022-10-15T08:46:50.883Z,10.95
2022-10-15T08:52:10.143Z,11.10
2022-10-15T08:57:38.219Z,11.31
2022-10-15T09:02:59.099Z,11.61
2022-10-15T09:08:19.695Z,11.81
2022-10-15T09:13:32.445Z,12.02
2022-10-15T09:18:43.464Z,12.11
2022-10-15T09:23:50.627Z,12.24
2022-10-15T09:29:08.371Z,12.38
2022-10-15T09:34:27.517Z,12.56
2022-10-15T09:39:47.456Z,12.68
2022-10-15T09:44:56.249Z,12.91
2022-10-15T09:50:05.018Z,13.04
2022-10-15T09:55:26.667Z,13.12
2022-10-15T10:01:00.235Z,13.33
2022-10-15T10:06:15.209Z,13.35
2022-10-15T10:11:28.798Z,13.46
2022-10-15T10:16:35.129Z,13.56
2022-10-15T10:21:46.309Z,13.68
2022-10-15T10:26:52.491Z,13.72
2022-10-15T10:31:58.923Z,13.75
2022-10-15T10:37:12.338Z,13.80
2022-10-15T10:43:11.900Z,13.90
2022-10-15T10:48:23.009Z,13.96
2022-10-15T10:53:30.734Z,14.16
2022-10-15T10:58:38.583Z,14.18
2022-10-15T11:03:48.883Z,14.14
2022-10-15T11:09:17.445Z,14.19
2022-10-15T11:14:33.964Z,14.14
2022-10-15T11:25:33.198Z,14.32
2022-10-15T11:30:53.456Z,14.48
2022-10-15T11:36:17.082Z,14.53
2022-10-15T11:41:43.659Z,14.59
2022-10-15T11:47:01.377Z,14.59
2022-10-15T11:52:27.758Z,14.76
2022-10-15T11:58:32.350Z,14.76
2022-10-15T12:03:48.130Z,14.81
2022-10-15T12:08:55.375Z,14.98
2022-10-15T12:14:14.921Z,15.09
2022-10-15T12:19:27.810Z,15.18
2022-10-15T12:24:56.839Z,15.27
2022-10-15T12:30:28.736Z,15.41
2022-10-15T12:35:40.480Z,15.41
2022-10-15T12:40:47.298Z,15.42
2022-10-15T12:45:57.873Z,15.43
2022-10-15T12:51:41.918Z,15.51
2022-10-15T12:56:48.477Z,15.57
2022-10-15T13:01:56.339Z,15.65
2022-10-15T13:07:05.555Z,15.71
2022-10-15T13:12:25.761Z,15.66
2022-10-15T13:17:34.966Z,15.64
2022-10-15T13:22:41.689Z,15.62
2022-10-15T13:27:48.053Z,15.58
2022-10-15T13:32:58.399Z,15.54
2022-10-15T13:38:06.345Z,15.44
2022-10-15T13:43:19.756Z,15.35
2022-10-15T13:48:30.923Z,15.30
2022-10-15T13:53:39.213Z,15.26
2022-10-15T13:58:48.052Z,15.20
2022-10-15T14:03:57.674Z,15.13
2022-10-15T14:09:19.940Z,15.07
2022-10-15T14:14:36.107Z,15.04
2022-10-15T14:19:51.504Z,14.98
2022-10-15T14:30:29.633Z,14.83
2022-10-15T14:35:39.547Z,14.73
2022-10-15T14:41:04.858Z,14.64
2022-10-15T14:46:21.111Z,14.55
2022-10-15T14:51:30.267Z,14.46
2022-10-15T14:56:36.958Z,14.38
2022-10-15T15:01:52.645Z,14.33
2022-10-15T15:07:00.421Z,14.29
2022-10-15T15:12:07.135Z,14.26
2022-10-15T15:24:25.799Z,14.14
2022-10-15T15:37:44.835Z,14.01
2022-10-15T15:42:52.619Z,13.95
2022-10-15T15:48:02.414Z,13.94
2022-10-15T15:53:09.063Z,13.86
2022-10-15T15:58:17.297Z,13.78
2022-10-15T16:03:24.182Z,13.72
2022-10-15T16:08:31.344Z,13.70
2022-10-15T16:13:41.173Z,13.64
2022-10-15T16:18:47.680Z,13.62
2022-10-15T16:23:54.252Z,13.61
2022-10-15T16:29:02.331Z,13.55
2022-10-15T16:34:09.198Z,13.49
2022-10-15T16:39:16.546Z,13.44
2022-10-15T16:44:24.397Z,13.40
2022-10-15T16:49:31.134Z,13.38
2022-10-15T16:54:39.032Z,13.37
2022-10-15T16:59:46.882Z,13.35
2022-10-15T17:04:53.606Z,13.33
2022-10-15T17:10:00.701Z,13.32
2022-10-15T17:15:12.717Z,13.32
2022-10-15T17:20:20.707Z,13.31
2022-10-15T17:25:29.654Z,13.29
2022-10-15T17:30:44.627Z,13.27
2022-10-15T17:35:59.261Z,13.27
2022-10-15T17:41:15.986Z,13.23
2022-10-15T17:46:31.455Z,13.24
2022-10-15T17:51:41.610Z,13.22
2022-10-15T17:56:49.489Z,13.19
2022-10-15T18:02:01.320Z,13.17
2022-10-15T18:07:15.086Z,13.16
2022-10-15T18:12:27.747Z,13.11
2022-10-15T18:17:37.547Z,13.09
2022-10-15T18:22:47.104Z,13.08
2022-10-15T18:27:54.935Z,13.06
2022-10-15T18:33:03.590Z,12.91
2022-10-15T18:38:10.563Z,12.89
2022-10-15T18:43:19.584Z,12.85
2022-10-15T18:48:32.807Z,12.83
2022-10-15T18:53:41.824Z,12.82
2022-10-15T18:58:57.355Z,12.79
2022-10-15T19:04:15.787Z,12.77
2022-10-15T19:09:31.202Z,12.73
2022-10-15T19:14:42.446Z,12.70
2022-10-15T19:19:54.871Z,12.68
2022-10-15T19:25:51.103Z,12.65
2022-10-15T19:31:08.776Z,12.61
2022-10-15T19:36:49.407Z,12.60
2022-10-15T19:41:58.051Z,12.57
2022-10-15T19:47:05.763Z,12.50
2022-10-15T19:52:15.889Z,12.48
2022-10-15T19:57:24.224Z,12.44
2022-10-15T20:02:32.856Z,12.43
2022-10-15T20:07:43.182Z,12.40
2022-10-15T20:12:51.419Z,12.34
2022-10-15T20:17:59.011Z,12.28
2022-10-15T20:23:08.221Z,12.23
2022-10-15T20:28:20.038Z,12.23
2022-10-15T20:33:32.538Z,12.22
2022-10-15T20:38:44.194Z,12.21
2022-10-15T20:43:57.932Z,12.19
2022-10-15T20:54:21.029Z,12.19
2022-10-15T20:59:30.264Z,12.19
2022-10-15T21:04:37.750Z,12.21
2022-10-15T21:09:46.630Z,12.22
2022-10-15T21:14:53.279Z,12.21
2022-10-15T21:19:59.385Z,12.19
2022-10-15T21:25:08.351Z,12.20
2022-10-15T21:30:15.006Z,12.19
2022-10-15T21:35:21.526Z,12.18
2022-10-15T21:40:30.498Z,12.17
2022-10-15T21:45:37.813Z,12.18
2022-10-15T21:50:49.275Z,12.18
2022-10-15T21:55:57.839Z,12.19
2022-10-15T22:01:14.537Z,12.21
2022-10-15T22:06:23.964Z,12.20
2022-10-15T22:11:35.645Z,12.22
2022-10-15T22:16:43.347Z,12.26
2022-10-15T22:21:51.229Z,12.27
2022-10-15T22:27:01.049Z,12.29
2022-10-15T22:32:07.464Z,12.31
2022-10-15T22:37:13.669Z,12.34
2022-10-15T22:42:21.204Z,12.33
2022-10-15T22:47:28.080Z,12.34
2022-10-15T22:52:34.165Z,12.39
2022-10-15T22:57:41.638Z,12.43
2022-10-15T23:02:47.797Z,12.44
2022-10-15T23:07:53.791Z,12.43
2022-10-15T23:13:01.196Z,12.44
2022-10-15T23:18:07.120Z,12.43
2022-10-15T23:23:13.110Z,12.44
2022-10-15T23:28:26.995Z,12.46
2022-10-15T23:33:35.579Z,12.43
2022-10-15T23:38:41.648Z,12.43
2022-10-15T23:43:50.153Z,12.42
2022-10-15T23:48:58.081Z,12.42
2022-10-15T23:54:06.256Z,12.41
2022-10-15T23:59:14.193Z,12.40
